sensor_id;sensor_type;location;lat;lon;timestamp;temperature;humidity
79049;DHT22;68680;50.764;6.120;2024-03-02T00:01:17;8.60;99.90
79049;DHT22;68680;50.764;6.120;2024-03-02T00:03:42;8.60;99.90
79049;DHT22;68680;50.764;6.120;2024-03-02T00:06:08;8.60;99.90
79049;DHT22;68680;50.764;6.120;2024-03-02T00:08:35;8.60;99.90
79049;DHT22;68680;50.764;6.120;2024-03-02T00:11:01;8.60;99.90
79049;DHT22;68680;50.764;6.120;2024-03-02T00:13:29;8.60;99.90
79049;DHT22;68680;50.764;6.120;2024-03-02T00:15:56;8.60;99.90
79049;DHT22;68680;50.764;6.120;2024-03-02T00:18:25;8.60;99.90
79049;DHT22;68680;50.764;6.120;2024-03-02T00:20:56;8.60;99.90
79049;DHT22;68680;50.764;6.120;2024-03-02T00:23:22;8.70;99.90
79049;DHT22;68680;50.764;6.120;2024-03-02T00:25:50;8.70;99.90
79049;DHT22;68680;50.764;6.120;2024-03-02T00:28:19;8.70;99.90
79049;DHT22;68680;50.764;6.120;2024-03-02T00:30:57;8.70;99.90
79049;DHT22;68680;50.764;6.120;2024-03-02T00:33:27;8.70;99.90
79049;DHT22;68680;50.764;6.120;2024-03-02T00:35:55;8.70;99.90
79049;DHT22;68680;50.764;6.120;2024-03-02T00:38:22;8.70;99.90
79049;DHT22;68680;50.764;6.120;2024-03-02T00:40:48;8.70;99.90
79049;DHT22;68680;50.764;6.120;2024-03-02T00:43:39;8.80;99.90
79049;DHT22;68680;50.764;6.120;2024-03-02T00:46:10;8.70;99.90
79049;DHT22;68680;50.764;6.120;2024-03-02T00:48:36;8.80;99.90
79049;DHT22;68680;50.764;6.120;2024-03-02T00:51:03;8.70;99.90
79049;DHT22;68680;50.764;6.120;2024-03-02T00:53:30;8.70;99.90
79049;DHT22;68680;50.764;6.120;2024-03-02T00:55:57;8.70;99.90
79049;DHT22;68680;50.764;6.120;2024-03-02T00:58:22;8.70;99.90
79049;DHT22;68680;50.764;6.120;2024-03-02T01:00:48;8.70;99.90
79049;DHT22;68680;50.764;6.120;2024-03-02T01:03:16;8.70;99.90
79049;DHT22;68680;50.764;6.120;2024-03-02T01:05:42;8.80;99.90
79049;DHT22;68680;50.764;6.120;2024-03-02T01:08:08;8.80;99.90
79049;DHT22;68680;50.764;6.120;2024-03-02T01:10:34;8.80;99.90
79049;DHT22;68680;50.764;6.120;2024-03-02T01:13:00;8.90;99.90
79049;DHT22;68680;50.764;6.120;2024-03-02T01:15:26;8.90;99.80
79049;DHT22;68680;50.764;6.120;2024-03-02T01:17:52;8.80;99.90
79049;DHT22;68680;50.764;6.120;2024-03-02T01:20:19;8.80;99.90
79049;DHT22;68680;50.764;6.120;2024-03-02T01:22:44;8.80;99.90
79049;DHT22;68680;50.764;6.120;2024-03-02T01:25:10;8.80;99.90
79049;DHT22;68680;50.764;6.120;2024-03-02T01:27:36;8.90;99.90
79049;DHT22;68680;50.764;6.120;2024-03-02T01:30:02;8.90;99.90
79049;DHT22;68680;50.764;6.120;2024-03-02T01:32:28;8.90;99.90
79049;DHT22;68680;50.764;6.120;2024-03-02T01:34:54;8.90;99.70
79049;DHT22;68680;50.764;6.120;2024-03-02T01:37:21;8.90;99.90
79049;DHT22;68680;50.764;6.120;2024-03-02T01:39:46;8.90;99.90
79049;DHT22;68680;50.764;6.120;2024-03-02T01:42:12;8.90;99.90
79049;DHT22;68680;50.764;6.120;2024-03-02T01:44:38;8.80;99.90
79049;DHT22;68680;50.764;6.120;2024-03-02T01:47:05;8.80;99.90
79049;DHT22;68680;50.764;6.120;2024-03-02T01:49:31;8.80;99.90
79049;DHT22;68680;50.764;6.120;2024-03-02T01:51:57;8.80;99.90
79049;DHT22;68680;50.764;6.120;2024-03-02T01:54:24;8.70;99.90
79049;DHT22;68680;50.764;6.120;2024-03-02T01:56:49;8.80;99.90
79049;DHT22;68680;50.764;6.120;2024-03-02T01:59:15;8.70;99.90
79049;DHT22;68680;50.764;6.120;2024-03-02T02:01:41;8.70;99.90
79049;DHT22;68680;50.764;6.120;2024-03-02T02:04:07;8.60;99.90
79049;DHT22;68680;50.764;6.120;2024-03-02T02:06:33;8.40;99.90
79049;DHT22;68680;50.764;6.120;2024-03-02T02:08:59;8.10;99.90
79049;DHT22;68680;50.764;6.120;2024-03-02T02:11:26;7.90;99.90
79049;DHT22;68680;50.764;6.120;2024-03-02T02:13:52;7.80;99.90
79049;DHT22;68680;50.764;6.120;2024-03-02T02:16:17;7.70;99.90
79049;DHT22;68680;50.764;6.120;2024-03-02T02:18:43;7.70;99.90
79049;DHT22;68680;50.764;6.120;2024-03-02T02:21:09;7.60;99.90
79049;DHT22;68680;50.764;6.120;2024-03-02T02:23:36;7.50;99.90
79049;DHT22;68680;50.764;6.120;2024-03-02T02:26:02;7.40;99.90
79049;DHT22;68680;50.764;6.120;2024-03-02T02:28:28;7.40;99.90
79049;DHT22;68680;50.764;6.120;2024-03-02T02:30:55;7.30;99.90
79049;DHT22;68680;50.764;6.120;2024-03-02T02:33:20;7.30;99.90
79049;DHT22;68680;50.764;6.120;2024-03-02T02:35:46;7.20;99.90
79049;DHT22;68680;50.764;6.120;2024-03-02T02:38:12;7.20;99.90
79049;DHT22;68680;50.764;6.120;2024-03-02T02:40:39;7.10;99.90
79049;DHT22;68680;50.764;6.120;2024-03-02T02:43:05;7.00;99.90
79049;DHT22;68680;50.764;6.120;2024-03-02T02:45:31;7.00;99.90
79049;DHT22;68680;50.764;6.120;2024-03-02T02:47:56;7.00;99.90
79049;DHT22;68680;50.764;6.120;2024-03-02T02:50:22;7.00;99.90
79049;DHT22;68680;50.764;6.120;2024-03-02T02:52:48;7.00;99.90
79049;DHT22;68680;50.764;6.120;2024-03-02T02:55:14;6.90;99.90
79049;DHT22;68680;50.764;6.120;2024-03-02T02:57:42;6.90;99.90
79049;DHT22;68680;50.764;6.120;2024-03-02T03:00:08;6.80;99.90
79049;DHT22;68680;50.764;6.120;2024-03-02T03:02:37;6.80;99.90
79049;DHT22;68680;50.764;6.120;2024-03-02T03:05:04;6.70;99.90
79049;DHT22;68680;50.764;6.120;2024-03-02T03:07:30;6.60;99.90
79049;DHT22;68680;50.764;6.120;2024-03-02T03:09:55;6.60;99.90
79049;DHT22;68680;50.764;6.120;2024-03-02T03:12:21;6.60;99.90
79049;DHT22;68680;50.764;6.120;2024-03-02T03:14:48;6.60;99.90
79049;DHT22;68680;50.764;6.120;2024-03-02T03:17:14;6.60;99.90
79049;DHT22;68680;50.764;6.120;2024-03-02T03:19:40;6.60;99.90
79049;DHT22;68680;50.764;6.120;2024-03-02T03:22:05;6.60;99.90
79049;DHT22;68680;50.764;6.120;2024-03-02T03:24:31;6.60;99.90
79049;DHT22;68680;50.764;6.120;2024-03-02T03:26:57;6.50;99.90
79049;DHT22;68680;50.764;6.120;2024-03-02T03:29:23;6.50;99.90
79049;DHT22;68680;50.764;6.120;2024-03-02T03:31:50;6.40;99.90
79049;DHT22;68680;50.764;6.120;2024-03-02T03:34:15;6.40;99.90
79049;DHT22;68680;50.764;6.120;2024-03-02T03:36:41;6.40;99.90
79049;DHT22;68680;50.764;6.120;2024-03-02T03:39:07;6.40;99.90
79049;DHT22;68680;50.764;6.120;2024-03-02T03:41:33;6.40;99.90
79049;DHT22;68680;50.764;6.120;2024-03-02T03:43:59;6.40;99.90
79049;DHT22;68680;50.764;6.120;2024-03-02T03:46:24;6.40;99.90
79049;DHT22;68680;50.764;6.120;2024-03-02T03:48:52;6.40;99.90
79049;DHT22;68680;50.764;6.120;2024-03-02T03:51:17;6.30;99.90
79049;DHT22;68680;50.764;6.120;2024-03-02T03:53:43;6.30;99.90
79049;DHT22;68680;50.764;6.120;2024-03-02T03:56:09;6.30;99.90
79049;DHT22;68680;50.764;6.120;2024-03-02T03:58:34;6.30;99.90
79049;DHT22;68680;50.764;6.120;2024-03-02T04:01:00;6.30;99.90
79049;DHT22;68680;50.764;6.120;2024-03-02T04:03:26;6.40;99.90
79049;DHT22;68680;50.764;6.120;2024-03-02T04:05:53;6.40;99.90
79049;DHT22;68680;50.764;6.120;2024-03-02T04:08:19;6.40;99.90
79049;DHT22;68680;50.764;6.120;2024-03-02T04:10:44;6.40;99.90
79049;DHT22;68680;50.764;6.120;2024-03-02T04:13:10;6.40;99.90
79049;DHT22;68680;50.764;6.120;2024-03-02T04:15:36;6.40;99.90
79049;DHT22;68680;50.764;6.120;2024-03-02T04:18:02;6.40;99.90
79049;DHT22;68680;50.764;6.120;2024-03-02T04:20:28;6.50;99.90
79049;DHT22;68680;50.764;6.120;2024-03-02T04:22:55;6.50;99.90
79049;DHT22;68680;50.764;6.120;2024-03-02T04:25:21;6.50;99.90
79049;DHT22;68680;50.764;6.120;2024-03-02T04:27:46;6.50;99.90
79049;DHT22;68680;50.764;6.120;2024-03-02T04:30:12;6.60;99.90
79049;DHT22;68680;50.764;6.120;2024-03-02T04:32:38;6.60;99.90
79049;DHT22;68680;50.764;6.120;2024-03-02T04:35:05;6.60;99.90
79049;DHT22;68680;50.764;6.120;2024-03-02T04:37:33;6.60;99.90
79049;DHT22;68680;50.764;6.120;2024-03-02T04:40:01;6.60;99.90
79049;DHT22;68680;50.764;6.120;2024-03-02T04:42:26;6.60;99.90
79049;DHT22;68680;50.764;6.120;2024-03-02T04:44:52;6.60;99.90
79049;DHT22;68680;50.764;6.120;2024-03-02T04:47:18;6.70;99.90
79049;DHT22;68680;50.764;6.120;2024-03-02T04:49:44;6.60;99.90
79049;DHT22;68680;50.764;6.120;2024-03-02T04:52:10;6.60;99.90
79049;DHT22;68680;50.764;6.120;2024-03-02T04:54:35;6.70;99.90
79049;DHT22;68680;50.764;6.120;2024-03-02T04:57:03;6.70;99.90
79049;DHT22;68680;50.764;6.120;2024-03-02T04:59:29;6.80;99.90
79049;DHT22;68680;50.764;6.120;2024-03-02T05:01:54;6.80;99.90
79049;DHT22;68680;50.764;6.120;2024-03-02T05:04:20;6.80;99.90
79049;DHT22;68680;50.764;6.120;2024-03-02T05:06:46;6.70;99.90
79049;DHT22;68680;50.764;6.120;2024-03-02T05:09:12;6.80;99.90
79049;DHT22;68680;50.764;6.120;2024-03-02T05:11:37;6.80;99.90
79049;DHT22;68680;50.764;6.120;2024-03-02T05:14:05;6.70;99.90
79049;DHT22;68680;50.764;6.120;2024-03-02T05:16:33;6.70;99.90
79049;DHT22;68680;50.764;6.120;2024-03-02T05:18:58;6.70;99.90
79049;DHT22;68680;50.764;6.120;2024-03-02T05:21:24;6.70;99.90
79049;DHT22;68680;50.764;6.120;2024-03-02T05:23:50;6.80;99.90
79049;DHT22;68680;50.764;6.120;2024-03-02T05:26:16;6.70;99.90
79049;DHT22;68680;50.764;6.120;2024-03-02T05:28:41;6.70;99.90
79049;DHT22;68680;50.764;6.120;2024-03-02T05:31:10;6.70;99.90
79049;DHT22;68680;50.764;6.120;2024-03-02T05:33:37;6.80;99.90
79049;DHT22;68680;50.764;6.120;2024-03-02T05:36:04;6.80;99.90
79049;DHT22;68680;50.764;6.120;2024-03-02T05:38:30;6.70;99.90
79049;DHT22;68680;50.764;6.120;2024-03-02T05:40:55;6.80;99.90
79049;DHT22;68680;50.764;6.120;2024-03-02T05:43:21;6.80;99.90
79049;DHT22;68680;50.764;6.120;2024-03-02T05:45:47;6.80;99.90
79049;DHT22;68680;50.764;6.120;2024-03-02T05:48:14;6.80;99.90
79049;DHT22;68680;50.764;6.120;2024-03-02T05:50:40;6.80;99.90
79049;DHT22;68680;50.764;6.120;2024-03-02T05:53:06;6.80;99.90
79049;DHT22;68680;50.764;6.120;2024-03-02T05:55:32;6.80;99.90
79049;DHT22;68680;50.764;6.120;2024-03-02T05:57:57;6.80;99.90
79049;DHT22;68680;50.764;6.120;2024-03-02T06:00:23;6.80;99.90
79049;DHT22;68680;50.764;6.120;2024-03-02T06:02:49;6.80;99.90
79049;DHT22;68680;50.764;6.120;2024-03-02T06:05:16;6.80;99.90
79049;DHT22;68680;50.764;6.120;2024-03-02T06:07:43;6.80;99.90
79049;DHT22;68680;50.764;6.120;2024-03-02T06:10:09;6.80;99.90
79049;DHT22;68680;50.764;6.120;2024-03-02T06:12:35;6.80;99.90
79049;DHT22;68680;50.764;6.120;2024-03-02T06:15:00;6.80;99.90
79049;DHT22;68680;50.764;6.120;2024-03-02T06:17:26;6.80;99.90
79049;DHT22;68680;50.764;6.120;2024-03-02T06:19:52;6.80;99.90
79049;DHT22;68680;50.764;6.120;2024-03-02T06:22:19;6.80;99.90
79049;DHT22;68680;50.764;6.120;2024-03-02T06:24:45;6.80;99.90
79049;DHT22;68680;50.764;6.120;2024-03-02T06:27:10;6.80;99.90
79049;DHT22;68680;50.764;6.120;2024-03-02T06:29:36;6.80;99.90
79049;DHT22;68680;50.764;6.120;2024-03-02T06:32:02;6.80;99.90
79049;DHT22;68680;50.764;6.120;2024-03-02T06:34:28;6.80;99.90
79049;DHT22;68680;50.764;6.120;2024-03-02T06:36:54;6.80;99.90
79049;DHT22;68680;50.764;6.120;2024-03-02T06:39:21;6.80;99.90
79049;DHT22;68680;50.764;6.120;2024-03-02T06:41:46;6.80;99.90
79049;DHT22;68680;50.764;6.120;2024-03-02T06:44:12;6.80;99.90
79049;DHT22;68680;50.764;6.120;2024-03-02T06:46:43;6.80;99.90
79049;DHT22;68680;50.764;6.120;2024-03-02T06:49:09;6.80;99.90
79049;DHT22;68680;50.764;6.120;2024-03-02T06:51:34;6.80;99.90
79049;DHT22;68680;50.764;6.120;2024-03-02T06:54:00;6.90;99.90
79049;DHT22;68680;50.764;6.120;2024-03-02T06:56:27;6.90;99.90
79049;DHT22;68680;50.764;6.120;2024-03-02T06:58:53;6.90;99.90
79049;DHT22;68680;50.764;6.120;2024-03-02T07:01:19;6.90;99.90
79049;DHT22;68680;50.764;6.120;2024-03-02T07:03:45;6.90;99.90
79049;DHT22;68680;50.764;6.120;2024-03-02T07:06:10;6.80;99.90
79049;DHT22;68680;50.764;6.120;2024-03-02T07:08:36;6.80;99.90
79049;DHT22;68680;50.764;6.120;2024-03-02T07:11:02;6.80;99.90
79049;DHT22;68680;50.764;6.120;2024-03-02T07:13:29;6.80;99.90
79049;DHT22;68680;50.764;6.120;2024-03-02T07:15:55;6.70;99.90
79049;DHT22;68680;50.764;6.120;2024-03-02T07:18:21;6.70;99.90
79049;DHT22;68680;50.764;6.120;2024-03-02T07:20:47;6.70;99.90
79049;DHT22;68680;50.764;6.120;2024-03-02T07:23:12;6.70;99.90
79049;DHT22;68680;50.764;6.120;2024-03-02T07:25:38;6.80;99.90
79049;DHT22;68680;50.764;6.120;2024-03-02T07:28:05;6.80;99.90
79049;DHT22;68680;50.764;6.120;2024-03-02T07:30:32;6.90;99.90
79049;DHT22;68680;50.764;6.120;2024-03-02T07:32:58;6.90;99.90
79049;DHT22;68680;50.764;6.120;2024-03-02T07:35:24;6.90;99.90
79049;DHT22;68680;50.764;6.120;2024-03-02T07:37:50;6.90;99.90
79049;DHT22;68680;50.764;6.120;2024-03-02T07:40:15;6.90;99.90
79049;DHT22;68680;50.764;6.120;2024-03-02T07:42:41;6.90;99.90
79049;DHT22;68680;50.764;6.120;2024-03-02T07:45:08;6.90;99.90
79049;DHT22;68680;50.764;6.120;2024-03-02T07:47:35;6.90;99.90
79049;DHT22;68680;50.764;6.120;2024-03-02T07:50:01;7.00;99.90
79049;DHT22;68680;50.764;6.120;2024-03-02T07:52:27;7.10;99.90
79049;DHT22;68680;50.764;6.120;2024-03-02T07:54:53;7.20;99.90
79049;DHT22;68680;50.764;6.120;2024-03-02T07:57:19;7.30;99.90
79049;DHT22;68680;50.764;6.120;2024-03-02T07:59:44;7.40;99.90
79049;DHT22;68680;50.764;6.120;2024-03-02T08:02:11;7.50;99.90
79049;DHT22;68680;50.764;6.120;2024-03-02T08:04:38;7.50;99.90
79049;DHT22;68680;50.764;6.120;2024-03-02T08:07:04;7.60;99.90
79049;DHT22;68680;50.764;6.120;2024-03-02T08:09:30;7.60;99.90
79049;DHT22;68680;50.764;6.120;2024-03-02T08:11:56;7.70;99.90
79049;DHT22;68680;50.764;6.120;2024-03-02T08:14:21;7.70;99.90
79049;DHT22;68680;50.764;6.120;2024-03-02T08:16:47;7.70;99.90
79049;DHT22;68680;50.764;6.120;2024-03-02T08:19:13;7.80;99.90
79049;DHT22;68680;50.764;6.120;2024-03-02T08:21:40;7.80;99.90
79049;DHT22;68680;50.764;6.120;2024-03-02T08:24:07;7.80;99.90
79049;DHT22;68680;50.764;6.120;2024-03-02T08:26:32;7.80;99.90
79049;DHT22;68680;50.764;6.120;2024-03-02T08:28:58;7.80;99.90
79049;DHT22;68680;50.764;6.120;2024-03-02T08:31:24;7.80;99.90
79049;DHT22;68680;50.764;6.120;2024-03-02T08:33:50;7.80;99.90
79049;DHT22;68680;50.764;6.120;2024-03-02T08:36:16;7.90;99.90
79049;DHT22;68680;50.764;6.120;2024-03-02T08:38:43;7.90;99.90
79049;DHT22;68680;50.764;6.120;2024-03-02T08:41:09;7.80;99.90
79049;DHT22;68680;50.764;6.120;2024-03-02T08:43:34;7.80;99.90
79049;DHT22;68680;50.764;6.120;2024-03-02T08:46:00;7.70;99.90
79049;DHT22;68680;50.764;6.120;2024-03-02T08:48:26;7.70;99.90
79049;DHT22;68680;50.764;6.120;2024-03-02T08:50:52;7.80;99.90
79049;DHT22;68680;50.764;6.120;2024-03-02T08:53:18;7.80;99.90
79049;DHT22;68680;50.764;6.120;2024-03-02T08:55:45;7.90;99.90
79049;DHT22;68680;50.764;6.120;2024-03-02T08:58:11;7.90;99.90
79049;DHT22;68680;50.764;6.120;2024-03-02T09:00:37;8.00;99.90
79049;DHT22;68680;50.764;6.120;2024-03-02T09:03:03;8.10;99.90
79049;DHT22;68680;50.764;6.120;2024-03-02T09:05:29;8.20;99.90
79049;DHT22;68680;50.764;6.120;2024-03-02T09:07:55;8.30;99.90
79049;DHT22;68680;50.764;6.120;2024-03-02T09:10:21;8.30;99.90
79049;DHT22;68680;50.764;6.120;2024-03-02T09:12:48;8.40;99.90
79049;DHT22;68680;50.764;6.120;2024-03-02T09:15:14;8.50;99.90
79049;DHT22;68680;50.764;6.120;2024-03-02T09:17:40;8.50;99.90
79049;DHT22;68680;50.764;6.120;2024-03-02T09:20:07;8.60;99.90
79049;DHT22;68680;50.764;6.120;2024-03-02T09:22:33;8.70;99.90
79049;DHT22;68680;50.764;6.120;2024-03-02T09:24:58;8.80;99.90
79049;DHT22;68680;50.764;6.120;2024-03-02T09:27:24;8.70;99.90
79049;DHT22;68680;50.764;6.120;2024-03-02T09:29:51;8.80;99.90
79049;DHT22;68680;50.764;6.120;2024-03-02T09:32:17;8.80;99.90
79049;DHT22;68680;50.764;6.120;2024-03-02T09:34:43;8.90;99.90
79049;DHT22;68680;50.764;6.120;2024-03-02T09:37:09;9.00;99.90
79049;DHT22;68680;50.764;6.120;2024-03-02T09:39:34;9.00;99.90
79049;DHT22;68680;50.764;6.120;2024-03-02T09:42:00;9.00;99.90
79049;DHT22;68680;50.764;6.120;2024-03-02T09:44:26;9.10;99.90
79049;DHT22;68680;50.764;6.120;2024-03-02T09:46:53;9.20;99.90
79049;DHT22;68680;50.764;6.120;2024-03-02T09:49:19;9.20;99.90
79049;DHT22;68680;50.764;6.120;2024-03-02T09:51:47;9.30;99.90
79049;DHT22;68680;50.764;6.120;2024-03-02T09:54:15;9.40;99.90
79049;DHT22;68680;50.764;6.120;2024-03-02T09:56:41;9.40;99.90
79049;DHT22;68680;50.764;6.120;2024-03-02T09:59:07;9.40;99.80
79049;DHT22;68680;50.764;6.120;2024-03-02T10:01:33;9.30;99.90
79049;DHT22;68680;50.764;6.120;2024-03-02T10:04:01;9.30;99.90
79049;DHT22;68680;50.764;6.120;2024-03-02T10:06:28;9.40;99.90
79049;DHT22;68680;50.764;6.120;2024-03-02T10:08:55;9.50;99.90
79049;DHT22;68680;50.764;6.120;2024-03-02T10:11:28;9.60;99.90
79049;DHT22;68680;50.764;6.120;2024-03-02T10:14:04;9.70;99.90
79049;DHT22;68680;50.764;6.120;2024-03-02T10:16:31;9.70;99.90
79049;DHT22;68680;50.764;6.120;2024-03-02T10:18:56;9.70;98.80
79049;DHT22;68680;50.764;6.120;2024-03-02T10:21:23;9.80;99.90
79049;DHT22;68680;50.764;6.120;2024-03-02T10:23:49;9.80;98.70
79049;DHT22;68680;50.764;6.120;2024-03-02T10:26:17;9.90;99.50
79049;DHT22;68680;50.764;6.120;2024-03-02T10:28:46;9.80;98.60
79049;DHT22;68680;50.764;6.120;2024-03-02T10:31:12;9.90;99.10
79049;DHT22;68680;50.764;6.120;2024-03-02T10:33:38;9.90;98.50
79049;DHT22;68680;50.764;6.120;2024-03-02T10:36:05;10.00;98.90
79049;DHT22;68680;50.764;6.120;2024-03-02T10:38:33;10.10;98.30
79049;DHT22;68680;50.764;6.120;2024-03-02T10:40:59;10.10;98.70
79049;DHT22;68680;50.764;6.120;2024-03-02T10:43:26;10.10;98.00
79049;DHT22;68680;50.764;6.120;2024-03-02T10:45:52;10.30;98.50
79049;DHT22;68680;50.764;6.120;2024-03-02T10:48:20;10.30;97.80
79049;DHT22;68680;50.764;6.120;2024-03-02T10:50:46;10.30;97.10
79049;DHT22;68680;50.764;6.120;2024-03-02T10:53:12;10.00;97.30
79049;DHT22;68680;50.764;6.120;2024-03-02T10:55:39;10.00;98.10
79049;DHT22;68680;50.764;6.120;2024-03-02T10:58:06;10.10;98.50
79049;DHT22;68680;50.764;6.120;2024-03-02T11:00:34;10.10;97.90
79049;DHT22;68680;50.764;6.120;2024-03-02T11:03:05;10.30;97.50
79049;DHT22;68680;50.764;6.120;2024-03-02T11:05:34;10.40;97.70
79049;DHT22;68680;50.764;6.120;2024-03-02T11:08:08;10.60;95.90
79049;DHT22;68680;50.764;6.120;2024-03-02T11:10:48;10.70;95.30
79049;DHT22;68680;50.764;6.120;2024-03-02T11:13:16;10.70;95.30
79049;DHT22;68680;50.764;6.120;2024-03-02T11:15:47;10.80;96.10
79049;DHT22;68680;50.764;6.120;2024-03-02T11:18:15;10.80;96.50
79049;DHT22;68680;50.764;6.120;2024-03-02T11:20:42;10.90;95.00
79049;DHT22;68680;50.764;6.120;2024-03-02T11:23:09;11.00;94.80
79049;DHT22;68680;50.764;6.120;2024-03-02T11:25:35;11.10;95.00
79049;DHT22;68680;50.764;6.120;2024-03-02T11:28:06;11.20;95.30
79049;DHT22;68680;50.764;6.120;2024-03-02T11:30:51;11.30;96.80
79049;DHT22;68680;50.764;6.120;2024-03-02T11:33:23;11.30;94.50
79049;DHT22;68680;50.764;6.120;2024-03-02T11:35:50;11.30;94.20
79049;DHT22;68680;50.764;6.120;2024-03-02T11:38:15;11.40;93.90
79049;DHT22;68680;50.764;6.120;2024-03-02T11:40:43;11.60;94.00
79049;DHT22;68680;50.764;6.120;2024-03-02T11:43:11;11.70;93.60
79049;DHT22;68680;50.764;6.120;2024-03-02T11:45:37;11.90;94.40
79049;DHT22;68680;50.764;6.120;2024-03-02T11:48:06;12.10;94.80
79049;DHT22;68680;50.764;6.120;2024-03-02T11:50:35;12.30;94.60
79049;DHT22;68680;50.764;6.120;2024-03-02T11:53:02;12.20;93.40
79049;DHT22;68680;50.764;6.120;2024-03-02T11:55:30;12.00;92.80
79049;DHT22;68680;50.764;6.120;2024-03-02T11:57:57;11.70;94.20
79049;DHT22;68680;50.764;6.120;2024-03-02T12:00:26;11.60;95.00
79049;DHT22;68680;50.764;6.120;2024-03-02T12:03:01;11.80;94.60
79049;DHT22;68680;50.764;6.120;2024-03-02T12:05:30;12.10;95.20
79049;DHT22;68680;50.764;6.120;2024-03-02T12:07:57;12.40;93.80
79049;DHT22;68680;50.764;6.120;2024-03-02T12:10:23;12.50;93.30
79049;DHT22;68680;50.764;6.120;2024-03-02T12:12:55;12.70;94.00
79049;DHT22;68680;50.764;6.120;2024-03-02T12:15:23;12.80;94.20
79049;DHT22;68680;50.764;6.120;2024-03-02T12:17:53;13.00;94.60
79049;DHT22;68680;50.764;6.120;2024-03-02T12:20:20;13.10;94.00
79049;DHT22;68680;50.764;6.120;2024-03-02T12:22:46;13.20;93.10
79049;DHT22;68680;50.764;6.120;2024-03-02T12:25:12;13.40;92.70
79049;DHT22;68680;50.764;6.120;2024-03-02T12:27:38;13.40;92.60
79049;DHT22;68680;50.764;6.120;2024-03-02T12:30:06;13.30;93.10
79049;DHT22;68680;50.764;6.120;2024-03-02T12:32:34;13.30;93.40
79049;DHT22;68680;50.764;6.120;2024-03-02T12:34:59;13.30;91.50
79049;DHT22;68680;50.764;6.120;2024-03-02T12:37:25;13.20;92.30
79049;DHT22;68680;50.764;6.120;2024-03-02T12:39:52;13.30;92.50
79049;DHT22;68680;50.764;6.120;2024-03-02T12:42:18;13.20;94.10
79049;DHT22;68680;50.764;6.120;2024-03-02T12:44:44;13.10;92.50
79049;DHT22;68680;50.764;6.120;2024-03-02T12:47:10;13.10;93.30
79049;DHT22;68680;50.764;6.120;2024-03-02T12:49:37;13.20;94.50
79049;DHT22;68680;50.764;6.120;2024-03-02T12:52:05;13.30;93.20
79049;DHT22;68680;50.764;6.120;2024-03-02T12:54:32;13.40;92.40
79049;DHT22;68680;50.764;6.120;2024-03-02T12:56:58;13.30;93.20
79049;DHT22;68680;50.764;6.120;2024-03-02T12:59:25;13.30;93.90
79049;DHT22;68680;50.764;6.120;2024-03-02T13:01:51;13.40;93.80
79049;DHT22;68680;50.764;6.120;2024-03-02T13:04:18;13.50;94.70
79049;DHT22;68680;50.764;6.120;2024-03-02T13:06:48;13.60;93.60
79049;DHT22;68680;50.764;6.120;2024-03-02T13:09:15;13.50;93.20
79049;DHT22;68680;50.764;6.120;2024-03-02T13:11:41;13.60;93.00
79049;DHT22;68680;50.764;6.120;2024-03-02T13:14:08;13.60;93.20
79049;DHT22;68680;50.764;6.120;2024-03-02T13:16:38;13.60;93.70
79049;DHT22;68680;50.764;6.120;2024-03-02T13:19:04;13.60;92.90
79049;DHT22;68680;50.764;6.120;2024-03-02T13:21:32;13.40;93.00
79049;DHT22;68680;50.764;6.120;2024-03-02T13:23:59;13.40;94.30
79049;DHT22;68680;50.764;6.120;2024-03-02T13:26:25;13.50;94.60
79049;DHT22;68680;50.764;6.120;2024-03-02T13:28:51;13.50;94.10
79049;DHT22;68680;50.764;6.120;2024-03-02T13:31:17;13.60;93.90
79049;DHT22;68680;50.764;6.120;2024-03-02T13:33:43;13.60;93.80
79049;DHT22;68680;50.764;6.120;2024-03-02T13:36:09;13.70;93.50
79049;DHT22;68680;50.764;6.120;2024-03-02T13:38:34;13.70;94.40
79049;DHT22;68680;50.764;6.120;2024-03-02T13:41:02;13.70;94.20
79049;DHT22;68680;50.764;6.120;2024-03-02T13:43:28;13.60;94.20
79049;DHT22;68680;50.764;6.120;2024-03-02T13:45:53;13.60;93.90
79049;DHT22;68680;50.764;6.120;2024-03-02T13:48:19;13.70;93.90
79049;DHT22;68680;50.764;6.120;2024-03-02T13:50:45;13.80;93.70
79049;DHT22;68680;50.764;6.120;2024-03-02T13:53:11;13.70;93.80
79049;DHT22;68680;50.764;6.120;2024-03-02T13:55:37;13.80;94.10
79049;DHT22;68680;50.764;6.120;2024-03-02T13:58:04;13.70;93.00
79049;DHT22;68680;50.764;6.120;2024-03-02T14:00:30;13.80;93.10
79049;DHT22;68680;50.764;6.120;2024-03-02T14:02:56;14.10;93.20
79049;DHT22;68680;50.764;6.120;2024-03-02T14:05:22;14.00;93.40
79049;DHT22;68680;50.764;6.120;2024-03-02T14:07:48;13.90;92.50
79049;DHT22;68680;50.764;6.120;2024-03-02T14:10:13;13.80;93.30
79049;DHT22;68680;50.764;6.120;2024-03-02T14:12:41;13.70;93.80
79049;DHT22;68680;50.764;6.120;2024-03-02T14:15:09;13.60;93.80
79049;DHT22;68680;50.764;6.120;2024-03-02T14:17:34;13.70;94.40
79049;DHT22;68680;50.764;6.120;2024-03-02T14:20:00;13.70;94.40
79049;DHT22;68680;50.764;6.120;2024-03-02T14:22:26;13.60;93.60
79049;DHT22;68680;50.764;6.120;2024-03-02T14:24:52;13.70;94.50
79049;DHT22;68680;50.764;6.120;2024-03-02T14:27:18;13.90;94.90
79049;DHT22;68680;50.764;6.120;2024-03-02T14:29:44;15.10;91.40
79049;DHT22;68680;50.764;6.120;2024-03-02T14:32:11;15.10;90.60
79049;DHT22;68680;50.764;6.120;2024-03-02T14:34:36;14.80;91.20
79049;DHT22;68680;50.764;6.120;2024-03-02T14:37:02;15.10;89.00
79049;DHT22;68680;50.764;6.120;2024-03-02T14:39:28;16.30;85.90
79049;DHT22;68680;50.764;6.120;2024-03-02T14:41:54;17.70;77.20
79049;DHT22;68680;50.764;6.120;2024-03-02T14:44:20;17.30;80.30
79049;DHT22;68680;50.764;6.120;2024-03-02T14:46:46;17.00;78.50
79049;DHT22;68680;50.764;6.120;2024-03-02T14:49:15;16.60;77.40
79049;DHT22;68680;50.764;6.120;2024-03-02T14:51:41;15.60;82.40
79049;DHT22;68680;50.764;6.120;2024-03-02T14:54:07;15.10;85.10
79049;DHT22;68680;50.764;6.120;2024-03-02T14:56:32;14.60;86.90
79049;DHT22;68680;50.764;6.120;2024-03-02T14:58:58;14.30;88.20
79049;DHT22;68680;50.764;6.120;2024-03-02T15:01:24;14.10;89.80
79049;DHT22;68680;50.764;6.120;2024-03-02T15:03:50;14.00;90.10
79049;DHT22;68680;50.764;6.120;2024-03-02T15:06:17;13.90;91.30
79049;DHT22;68680;50.764;6.120;2024-03-02T15:08:43;13.70;90.30
79049;DHT22;68680;50.764;6.120;2024-03-02T15:11:09;13.60;91.20
79049;DHT22;68680;50.764;6.120;2024-03-02T15:13:35;13.60;91.30
79049;DHT22;68680;50.764;6.120;2024-03-02T15:16:02;13.50;91.10
79049;DHT22;68680;50.764;6.120;2024-03-02T15:18:28;13.20;89.10
79049;DHT22;68680;50.764;6.120;2024-03-02T15:20:53;13.20;91.10
79049;DHT22;68680;50.764;6.120;2024-03-02T15:23:20;13.10;92.20
79049;DHT22;68680;50.764;6.120;2024-03-02T15:25:46;13.10;91.30
79049;DHT22;68680;50.764;6.120;2024-03-02T15:28:12;13.00;92.00
79049;DHT22;68680;50.764;6.120;2024-03-02T15:30:38;13.00;92.00
79049;DHT22;68680;50.764;6.120;2024-03-02T15:33:04;12.90;91.30
79049;DHT22;68680;50.764;6.120;2024-03-02T15:35:29;12.90;91.40